Time;durP1;ratioP1;P1;durP2;ratioP2;P2;SDS_P1;SDS_P2;PMS_P1;PMS_P2;Temp;Humidity;BMP_temperature;BMP_pressure;BME280_temperature;BME280_humidity;BME280_pressure;Samples;Min_cycle;Max_cycle;Signal;HPM_P1;HPM_P2
2022/06/24 00:00:12;;;;;;;11.30;7.63;;;21.10;83.90;;;;;;4999731;28;20925;-87
2022/06/24 00:02:40;;;;;;;9.83;7.47;;;21.10;84.20;;;;;;4999991;28;20488;-88
2022/06/24 00:05:09;;;;;;;11.10;6.93;;;21.00;84.30;;;;;;5000313;28;20428;-88
2022/06/24 00:07:45;;;;;;;11.30;7.70;;;21.00;84.30;;;;;;5000480;28;20458;-88
2022/06/24 00:10:16;;;;;;;10.83;7.67;;;20.90;84.30;;;;;;5000203;28;20473;-88
2022/06/24 00:12:45;;;;;;;10.27;7.53;;;20.90;84.50;;;;;;4999626;28;20494;-87
2022/06/24 00:15:12;;;;;;;11.37;7.43;;;20.80;85.10;;;;;;4999484;28;20426;-87
2022/06/24 00:17:38;;;;;;;9.60;7.23;;;20.80;85.20;;;;;;4999221;28;20452;-88
2022/06/24 00:20:06;;;;;;;9.97;7.47;;;20.70;85.10;;;;;;4999557;28;20459;-88
2022/06/24 00:22:41;;;;;;;8.75;6.65;;;20.70;85.20;;;;;;5016969;28;20695;-88
2022/06/24 00:25:07;;;;;;;8.87;6.70;;;20.60;85.10;;;;;;4999512;28;20487;-87
2022/06/24 00:27:33;;;;;;;8.10;6.10;;;20.60;85.10;;;;;;4998938;28;20972;-87
2022/06/24 00:30:13;;;;;;;8.30;5.90;;;20.50;84.90;;;;;;4999663;28;20422;-88
2022/06/24 00:32:39;;;;;;;9.50;6.00;;;20.50;84.90;;;;;;4999251;28;20220;-88
2022/06/24 00:35:11;;;;;;;9.83;5.80;;;20.50;84.90;;;;;;4999091;28;20412;-88
2022/06/24 00:37:38;;;;;;;10.63;6.40;;;20.50;85.00;;;;;;4990177;28;20441;-87
2022/06/24 00:40:09;;;;;;;8.40;6.50;;;20.50;85.50;;;;;;4980464;28;20495;-87
2022/06/24 00:42:41;;;;;;;10.10;6.30;;;20.50;85.60;;;;;;4989544;28;20791;-87
2022/06/24 00:45:16;;;;;;;7.97;5.83;;;20.40;85.30;;;;;;4999346;28;20888;-87
2022/06/24 00:47:44;;;;;;;6.80;5.60;;;20.40;85.60;;;;;;5010733;28;20605;-87
2022/06/24 00:50:39;;;;;;;8.63;5.93;;;20.30;85.40;;;;;;5018438;28;20411;-87
2022/06/24 00:53:09;;;;;;;7.80;5.43;;;20.20;85.90;;;;;;5034796;28;20470;-87
2022/06/24 00:55:37;;;;;;;11.00;5.70;;;20.20;86.10;;;;;;5018901;28;20425;-87
2022/06/24 00:58:04;;;;;;;10.00;5.63;;;20.10;86.00;;;;;;5017920;28;21036;-87
2022/06/24 01:00:32;;;;;;;16.90;6.10;;;20.10;86.00;;;;;;5018103;28;20770;-87
2022/06/24 01:03:04;;;;;;;6.00;5.13;;;20.10;86.10;;;;;;5017817;28;20502;-87
2022/06/24 01:05:32;;;;;;;10.37;4.70;;;20.10;86.10;;;;;;5018082;28;21122;-88
2022/06/24 01:08:04;;;;;;;9.20;5.13;;;20.10;86.20;;;;;;5017037;28;20447;-88
2022/06/24 01:10:30;;;;;;;6.10;5.00;;;20.00;86.10;;;;;;5024959;28;20451;-88
2022/06/24 01:12:56;;;;;;;8.83;5.00;;;20.00;85.80;;;;;;5018179;28;20486;-88
2022/06/24 01:15:21;;;;;;;5.77;5.13;;;20.00;85.80;;;;;;5018158;28;20207;-88
2022/06/24 01:17:47;;;;;;;5.80;5.37;;;20.00;85.60;;;;;;5017807;28;20275;-87
2022/06/24 01:20:12;;;;;;;10.30;4.47;;;20.00;85.10;;;;;;5035644;28;20173;-87
2022/06/24 01:22:39;;;;;;;7.77;4.43;;;19.90;85.40;;;;;;5018066;28;20248;-87
2022/06/24 01:25:06;;;;;;;5.23;4.00;;;19.90;85.30;;;;;;5017714;28;20184;-86
2022/06/24 01:27:32;;;;;;;5.90;4.40;;;19.90;85.00;;;;;;5017359;28;20443;-86
2022/06/24 01:29:58;;;;;;;6.17;4.47;;;19.90;85.10;;;;;;5017824;28;20415;-86
2022/06/24 01:32:24;;;;;;;4.73;3.90;;;19.90;84.90;;;;;;5017556;28;20200;-86
2022/06/24 01:34:50;;;;;;;5.77;4.03;;;19.90;84.40;;;;;;5017345;28;20488;-87
2022/06/24 01:37:15;;;;;;;5.37;3.50;;;19.90;84.20;;;;;;5017612;28;20826;-86
2022/06/24 01:39:41;;;;;;;5.33;4.30;;;19.90;84.40;;;;;;5017218;28;20243;-87
2022/06/24 01:42:09;;;;;;;4.70;4.17;;;19.90;84.10;;;;;;5017598;28;20445;-86
2022/06/24 01:44:35;;;;;;;6.53;3.50;;;19.90;84.00;;;;;;5017898;28;20190;-86
2022/06/24 01:47:01;;;;;;;4.80;3.77;;;19.90;83.80;;;;;;5017657;28;20574;-86
2022/06/24 01:49:28;;;;;;;6.50;4.10;;;19.90;83.90;;;;;;5017899;28;20233;-86
2022/06/24 01:51:55;;;;;;;5.63;4.13;;;19.90;83.80;;;;;;5017475;28;20415;-86
2022/06/24 01:54:21;;;;;;;7.40;4.60;;;19.90;83.80;;;;;;5017534;28;20432;-86
2022/06/24 01:56:47;;;;;;;4.93;4.30;;;19.90;83.40;;;;;;5017181;28;20961;-86
2022/06/24 01:59:14;;;;;;;4.73;3.83;;;19.90;83.50;;;;;;5017088;28;20176;-87
2022/06/24 02:01:40;;;;;;;6.17;3.73;;;20.00;83.70;;;;;;5016920;28;20180;-87
2022/06/24 02:04:06;;;;;;;5.17;3.90;;;20.00;83.80;;;;;;5016395;28;20788;-87
2022/06/24 02:06:33;;;;;;;4.37;4.13;;;20.00;83.80;;;;;;5016985;28;20450;-87
2022/06/24 02:08:59;;;;;;;5.40;3.70;;;20.00;83.90;;;;;;5016361;28;20438;-88
2022/06/24 02:14:10;;;;;;;5.30;3.90;;;20.00;84.40;;;;;;5034990;28;20233;-88
2022/06/24 02:16:36;;;;;;;4.83;4.17;;;20.00;84.50;;;;;;5015157;28;20521;-88
2022/06/24 02:19:04;;;;;;;4.60;3.93;;;19.90;84.40;;;;;;5016395;28;20411;-87
2022/06/24 02:21:35;;;;;;;6.03;4.23;;;19.90;84.50;;;;;;5016945;28;20476;-87
2022/06/24 02:24:02;;;;;;;4.40;4.10;;;19.90;84.80;;;;;;5016765;28;20411;-87
2022/06/24 02:26:28;;;;;;;6.00;4.10;;;19.90;84.90;;;;;;5016888;28;20399;-87
2022/06/24 02:29:02;;;;;;;4.50;3.93;;;19.80;84.90;;;;;;5020548;28;20429;-87
2022/06/24 02:31:34;;;;;;;6.33;4.30;;;19.80;84.90;;;;;;5022589;28;20399;-87
2022/06/24 02:52:51;;;;;;;5.83;4.00;;;19.80;85.70;;;;;;5022834;28;20536;-87
2022/06/24 04:51:42;;;;;;;6.93;4.40;;;19.60;90.90;;;;;;4994163;28;20481;-86
2022/06/24 04:54:09;;;;;;;6.13;4.50;;;19.60;90.90;;;;;;4996899;28;20468;-87
2022/06/24 04:56:38;;;;;;;5.20;4.90;;;19.60;90.80;;;;;;4987834;28;20447;-87
2022/06/24 04:59:06;;;;;;;4.63;4.33;;;19.70;91.00;;;;;;4990632;28;20417;-87
2022/06/24 05:01:33;;;;;;;4.70;4.40;;;19.70;91.00;;;;;;4978693;28;20425;-86
2022/06/24 05:04:10;;;;;;;4.90;4.50;;;19.80;90.80;;;;;;4989199;28;20695;-86
2022/06/24 05:06:36;;;;;;;5.40;4.53;;;19.80;90.90;;;;;;4971828;28;20432;-87
2022/06/24 05:09:02;;;;;;;5.70;4.20;;;19.80;91.10;;;;;;4975341;28;20421;-86
2022/06/24 05:11:31;;;;;;;7.47;4.67;;;19.90;91.00;;;;;;4962655;28;20240;-85
2022/06/24 05:14:00;;;;;;;5.90;4.57;;;19.90;90.90;;;;;;4975904;28;20500;-86
2022/06/24 05:16:31;;;;;;;6.33;4.60;;;19.90;91.20;;;;;;4975967;28;20426;-85
2022/06/24 05:19:17;;;;;;;;;;;;;;;;;;;;;
2022/06/24 05:21:43;;;;;;;4.80;4.43;;;20.00;90.90;;;;;;4974337;28;20405;-85
2022/06/24 05:24:10;;;;;;;6.83;5.17;;;20.10;90.90;;;;;;4976209;28;20856;-86
2022/06/24 05:26:36;;;;;;;4.73;4.47;;;20.10;90.80;;;;;;4994108;28;20671;-85
2022/06/24 05:29:02;;;;;;;4.33;4.07;;;20.10;90.80;;;;;;4975947;28;20436;-85
2022/06/24 05:31:31;;;;;;;5.80;4.60;;;20.20;91.10;;;;;;4976247;28;20715;-85
2022/06/24 05:33:56;;;;;;;7.40;4.63;;;20.20;91.10;;;;;;4983681;28;20692;-85
2022/06/24 05:36:22;;;;;;;6.03;4.43;;;20.30;90.80;;;;;;4980064;28;20421;-85
2022/06/24 05:38:51;;;;;;;9.03;4.97;;;20.30;90.70;;;;;;4973960;28;20268;-85
2022/06/24 05:41:33;;;;;;;6.50;4.53;;;20.40;90.60;;;;;;4975318;28;20591;-86
2022/06/24 05:44:02;;;;;;;6.67;4.47;;;20.50;90.40;;;;;;4976219;28;20609;-86
2022/06/24 05:46:31;;;;;;;6.13;4.60;;;20.50;90.20;;;;;;4975905;28;20424;-85
2022/06/24 05:49:04;;;;;;;6.93;3.87;;;20.60;90.10;;;;;;4987312;28;20805;-86
2022/06/24 05:51:34;;;;;;;5.73;4.27;;;20.70;90.10;;;;;;5005207;28;20815;-85
2022/06/24 05:56:51;;;;;;;4.30;4.00;;;20.90;89.90;;;;;;5021171;28;20502;-86
2022/06/24 05:59:20;;;;;;;4.37;3.70;;;20.90;89.70;;;;;;4997642;28;20419;-85
2022/06/24 06:01:54;;;;;;;5.30;3.90;;;21.00;89.50;;;;;;5002333;28;20426;-85
2022/06/24 06:04:20;;;;;;;11.40;4.43;;;21.10;89.70;;;;;;5008810;28;20908;-85
2022/06/24 06:06:47;;;;;;;4.70;3.63;;;21.20;89.50;;;;;;5004204;28;20672;-85
2022/06/24 06:09:14;;;;;;;8.00;4.20;;;21.20;89.70;;;;;;4980515;28;20556;-85
2022/06/24 06:11:40;;;;;;;8.13;4.30;;;21.30;89.50;;;;;;4999738;28;20419;-85
2022/06/24 06:14:05;;;;;;;6.53;3.67;;;21.40;88.40;;;;;;4999227;28;20474;-86
2022/06/24 06:16:31;;;;;;;4.93;3.70;;;21.50;88.50;;;;;;4989818;28;20437;-86
2022/06/24 06:18:57;;;;;;;4.23;3.60;;;21.60;87.90;;;;;;5012732;28;20177;-85
2022/06/24 06:21:22;;;;;;;5.43;4.00;;;21.70;88.80;;;;;;4994713;28;20323;-84
2022/06/24 06:23:49;;;;;;;6.67;4.03;;;21.90;87.90;;;;;;5003408;28;20177;-84
2022/06/24 06:26:15;;;;;;;5.37;3.70;;;22.00;87.00;;;;;;4994479;28;20184;-85
2022/06/24 06:28:41;;;;;;;4.60;3.50;;;22.10;87.60;;;;;;4994349;28;20961;-85
2022/06/24 06:31:12;;;;;;;4.30;3.53;;;22.20;87.10;;;;;;4994368;28;20181;-85
2022/06/24 06:33:39;;;;;;;5.97;3.73;;;22.30;87.00;;;;;;4982199;28;20470;-85
2022/06/24 06:36:12;;;;;;;7.33;3.80;;;22.40;87.20;;;;;;4994578;28;20424;-85
2022/06/24 06:38:44;;;;;;;7.33;3.60;;;22.50;87.00;;;;;;4994528;28;20477;-85
2022/06/24 06:41:11;;;;;;;7.10;4.43;;;22.60;87.20;;;;;;5011893;28;20428;-85
2022/06/24 06:43:43;;;;;;;4.70;3.40;;;22.70;86.90;;;;;;4994382;28;20431;-85
2022/06/24 06:46:12;;;;;;;3.97;3.43;;;22.80;85.80;;;;;;4994283;28;20800;-85
2022/06/24 06:48:43;;;;;;;3.87;3.40;;;22.90;85.60;;;;;;5004058;28;20427;-85
2022/06/24 06:51:13;;;;;;;5.10;3.80;;;23.00;85.50;;;;;;4996684;28;20443;-85
2022/06/24 06:53:39;;;;;;;4.27;3.67;;;23.10;85.10;;;;;;5005925;28;20474;-85
2022/06/24 06:56:05;;;;;;;6.47;3.90;;;23.20;85.00;;;;;;4996150;28;20416;-85
2022/06/24 06:58:31;;;;;;;3.50;3.37;;;23.40;84.60;;;;;;4994965;28;20447;-85
2022/06/24 07:00:56;;;;;;;4.50;3.43;;;23.50;84.10;;;;;;4994005;28;20181;-85
2022/06/24 07:03:22;;;;;;;5.00;3.53;;;23.70;83.10;;;;;;4994477;28;20654;-84
2022/06/24 07:05:48;;;;;;;5.90;3.17;;;23.80;82.50;;;;;;4996078;28;20521;-84
2022/06/24 07:08:15;;;;;;;9.20;2.93;;;23.90;81.70;;;;;;4993784;28;20200;-85
2022/06/24 07:10:42;;;;;;;5.63;2.93;;;24.10;81.10;;;;;;4993978;28;20416;-85
2022/06/24 07:13:09;;;;;;;3.47;3.10;;;24.20;80.40;;;;;;4994857;28;20472;-85
2022/06/24 07:15:35;;;;;;;3.37;3.17;;;24.30;80.60;;;;;;4994901;28;20420;-84
2022/06/24 07:18:01;;;;;;;4.27;2.80;;;24.40;80.40;;;;;;4993849;28;20991;-84
2022/06/24 07:20:28;;;;;;;6.53;3.40;;;24.60;80.50;;;;;;4994052;28;20419;-85
2022/06/24 07:22:53;;;;;;;4.40;3.30;;;24.70;78.90;;;;;;4993781;28;20534;-85
2022/06/24 07:25:20;;;;;;;5.63;2.80;;;24.80;78.80;;;;;;4994085;28;20465;-84
2022/06/24 07:27:46;;;;;;;4.37;3.00;;;25.00;78.30;;;;;;4993726;28;20562;-85
2022/06/24 07:30:12;;;;;;;7.80;3.17;;;25.10;78.20;;;;;;4994129;28;20431;-85
2022/06/24 07:32:38;;;;;;;6.10;2.63;;;25.20;78.30;;;;;;4993863;28;20463;-85
2022/06/24 07:35:04;;;;;;;15.70;3.60;;;25.30;78.70;;;;;;5006699;28;20420;-85
2022/06/24 07:37:30;;;;;;;3.10;2.50;;;25.40;78.20;;;;;;4982458;28;20301;-85
2022/06/24 07:39:58;;;;;;;2.97;2.80;;;25.50;77.50;;;;;;4980287;28;20567;-84
2022/06/24 07:42:23;;;;;;;6.00;2.77;;;25.70;75.90;;;;;;4993963;28;20647;-84
2022/06/24 07:44:49;;;;;;;5.37;2.70;;;25.80;75.30;;;;;;5009955;28;20427;-84
2022/06/24 07:47:15;;;;;;;3.43;2.60;;;25.90;73.90;;;;;;4994425;28;20221;-84
2022/06/24 07:49:40;;;;;;;2.67;2.30;;;26.10;72.80;;;;;;4994113;28;20757;-83
2022/06/24 07:52:09;;;;;;;3.10;2.87;;;26.20;72.70;;;;;;5010550;28;20251;-83
2022/06/24 07:54:36;;;;;;;6.07;2.80;;;26.30;73.10;;;;;;4994235;28;20528;-83
2022/06/24 07:57:01;;;;;;;3.67;2.43;;;26.40;73.50;;;;;;4993597;28;20459;-85
2022/06/24 07:59:29;;;;;;;2.60;2.40;;;26.50;72.60;;;;;;4993172;28;20424;-84
2022/06/24 08:01:57;;;;;;;3.07;2.60;;;26.60;73.30;;;;;;4979997;28;20192;-84
2022/06/24 08:04:24;;;;;;;4.53;2.47;;;26.60;73.30;;;;;;4986815;28;20431;-84
2022/06/24 08:06:50;;;;;;;3.10;2.33;;;26.70;73.50;;;;;;4987516;28;20795;-84
2022/06/24 08:09:30;;;;;;;5.60;2.60;;;26.80;72.30;;;;;;5011676;28;20902;-83
2022/06/24 08:11:56;;;;;;;3.30;2.67;;;26.80;71.50;;;;;;4994688;28;20420;-84
2022/06/24 08:14:22;;;;;;;4.07;2.63;;;26.90;72.00;;;;;;5006045;28;20521;-84
2022/06/24 08:16:50;;;;;;;3.43;2.80;;;27.00;72.30;;;;;;5013902;28;20462;-85
2022/06/24 08:19:16;;;;;;;2.40;2.20;;;27.00;71.80;;;;;;4997146;28;20182;-84
2022/06/24 08:21:42;;;;;;;3.43;2.20;;;27.10;71.80;;;;;;4997232;28;20509;-83
2022/06/24 08:24:09;;;;;;;2.57;2.20;;;27.10;71.60;;;;;;4997216;28;20180;-83
2022/06/24 08:26:34;;;;;;;2.90;2.13;;;27.20;71.30;;;;;;4997155;28;20231;-83
2022/06/24 08:29:01;;;;;;;3.90;2.23;;;27.20;70.80;;;;;;4996863;28;20420;-83
2022/06/24 08:31:26;;;;;;;5.83;2.47;;;27.30;70.80;;;;;;4997324;28;20173;-83
2022/06/24 08:33:52;;;;;;;5.47;2.70;;;27.30;70.20;;;;;;4987739;28;20466;-83
2022/06/24 08:36:18;;;;;;;3.27;2.53;;;27.40;70.50;;;;;;4980457;28;20177;-83
2022/06/24 08:38:46;;;;;;;2.63;2.43;;;27.40;70.20;;;;;;4996969;28;20256;-84
2022/06/24 08:41:12;;;;;;;3.30;2.33;;;27.40;69.70;;;;;;5009831;28;20184;-83
2022/06/24 08:43:39;;;;;;;3.17;2.50;;;27.50;69.40;;;;;;4996919;28;20992;-83
2022/06/24 08:46:05;;;;;;;3.10;2.23;;;27.50;69.40;;;;;;4997292;28;20443;-82
2022/06/24 08:48:34;;;;;;;4.57;2.43;;;27.60;70.10;;;;;;4997509;28;20448;-82
2022/06/24 08:51:00;;;;;;;5.57;2.77;;;27.70;67.80;;;;;;4979145;28;20728;-82
2022/06/24 08:53:27;;;;;;;5.37;2.80;;;27.80;66.60;;;;;;4978315;28;20487;-82
2022/06/24 08:55:54;;;;;;;2.63;2.17;;;27.90;67.60;;;;;;4990375;28;20421;-83
2022/06/24 08:58:21;;;;;;;3.80;2.70;;;28.00;69.40;;;;;;4967422;28;20497;-81
2022/06/24 09:00:48;;;;;;;3.70;2.40;;;28.10;68.90;;;;;;4976066;28;20420;-83
2022/06/24 09:03:14;;;;;;;4.60;2.50;;;28.10;69.30;;;;;;4996246;28;20417;-82
2022/06/24 09:05:40;;;;;;;3.03;2.60;;;28.20;69.60;;;;;;4978060;28;20940;-81
2022/06/24 09:08:14;;;;;;;2.77;2.60;;;28.30;69.00;;;;;;4977263;28;20218;-84
2022/06/24 09:13:30;;;;;;;4.90;2.80;;;28.50;68.50;;;;;;5006871;28;20560;-82
2022/06/24 09:15:56;;;;;;;4.17;2.50;;;28.60;69.90;;;;;;4975684;28;20941;-82
2022/06/24 09:18:23;;;;;;;5.90;2.63;;;28.70;70.10;;;;;;4977327;28;20433;-81
2022/06/24 09:20:55;;;;;;;3.20;2.43;;;28.80;68.40;;;;;;4977646;28;20182;-82
2022/06/24 09:23:21;;;;;;;4.63;2.93;;;28.80;69.00;;;;;;4976967;28;20443;-81
2022/06/24 09:25:49;;;;;;;13.30;3.60;;;28.90;68.90;;;;;;4976960;28;20512;-81
2022/06/24 09:28:21;;;;;;;4.40;3.30;;;28.90;69.20;;;;;;4976470;28;20197;-83
2022/06/24 09:31:04;;;;;;;5.20;2.97;;;29.00;69.70;;;;;;4977000;28;20436;-82
2022/06/24 09:33:49;;;;;;;3.70;2.70;;;29.00;69.60;;;;;;4977183;28;20563;-83
2022/06/24 09:36:21;;;;;;;6.57;2.80;;;29.00;68.90;;;;;;4977701;28;20460;-82
2022/06/24 09:39:03;;;;;;;3.07;2.60;;;29.10;69.40;;;;;;4995605;28;20420;-83
2022/06/24 09:41:43;;;;;;;4.13;3.10;;;29.20;69.20;;;;;;4977733;28;20421;-83
2022/06/24 09:44:13;;;;;;;4.70;3.10;;;29.30;69.00;;;;;;4989492;28;20436;-82
2022/06/24 09:46:44;;;;;;;5.23;3.37;;;29.40;68.80;;;;;;4996405;28;20726;-82
2022/06/24 09:49:17;;;;;;;5.90;3.33;;;29.50;69.40;;;;;;4995957;28;20554;-82
2022/06/24 09:51:46;;;;;;;4.20;3.30;;;29.50;69.30;;;;;;4996599;28;20416;-83
2022/06/24 09:54:15;;;;;;;3.63;2.70;;;29.60;70.00;;;;;;4995835;28;20511;-83
2022/06/24 09:56:44;;;;;;;4.67;2.80;;;29.70;69.00;;;;;;4996814;28;20848;-81
2022/06/24 10:02:04;;;;;;;5.10;2.90;;;29.90;66.70;;;;;;4994695;28;20424;-82
2022/06/24 10:04:33;;;;;;;3.60;2.80;;;30.00;68.10;;;;;;4982837;28;20428;-82
2022/06/24 10:07:24;;;;;;;6.00;3.10;;;30.10;66.50;;;;;;5013280;28;20424;-82
2022/06/24 10:10:04;;;;;;;9.50;3.40;;;30.10;66.20;;;;;;4969176;28;20915;-81
2022/06/24 10:13:01;;;;;;;7.23;2.87;;;30.20;66.40;;;;;;4957201;28;20457;-82
2022/06/24 10:15:41;;;;;;;3.30;3.10;;;30.40;65.90;;;;;;4975796;28;20429;-82
2022/06/24 10:18:15;;;;;;;3.17;3.00;;;30.40;67.80;;;;;;4976354;28;20444;-83
2022/06/24 10:20:43;;;;;;;3.37;3.20;;;30.50;66.70;;;;;;4964186;28;20409;-84
2022/06/24 10:23:39;;;;;;;5.57;3.30;;;30.50;67.40;;;;;;4977053;28;20672;-82
2022/06/24 10:26:14;;;;;;;4.20;3.00;;;30.50;65.90;;;;;;4994489;28;20974;-82
2022/06/24 10:29:04;;;;;;;6.27;3.30;;;30.40;65.40;;;;;;4976778;28;20417;-82
2022/06/24 10:31:48;;;;;;;10.37;5.47;;;30.30;66.90;;;;;;4988879;28;20417;-82
2022/06/24 10:34:25;;;;;;;10.07;5.63;;;30.10;71.40;;;;;;4975755;28;20457;-82
2022/06/24 10:36:52;;;;;;;13.00;5.50;;;29.90;74.50;;;;;;4956781;28;20962;-82
2022/06/24 10:39:23;;;;;;;13.97;5.67;;;29.60;75.50;;;;;;4970942;28;20437;-83
2022/06/24 10:42:02;;;;;;;5.37;4.83;;;29.30;77.10;;;;;;4976453;28;20425;-83
2022/06/24 10:44:33;;;;;;;7.67;5.77;;;29.10;77.30;;;;;;4976364;28;20431;-82
2022/06/24 10:47:04;;;;;;;9.67;5.87;;;28.80;78.40;;;;;;4975738;28;20839;-85
2022/06/24 10:49:52;;;;;;;7.83;5.17;;;28.50;79.40;;;;;;4975391;28;20493;-82
2022/06/24 10:52:32;;;;;;;7.10;5.57;;;28.30;80.00;;;;;;4992175;28;20451;-84
2022/06/24 10:55:17;;;;;;;8.43;5.93;;;28.10;80.30;;;;;;4975703;28;20425;-83
2022/06/24 10:57:47;;;;;;;8.50;5.27;;;27.80;80.60;;;;;;4976057;28;20988;-81
2022/06/24 11:00:25;;;;;;;8.27;5.50;;;27.60;81.10;;;;;;4988690;28;20469;-81
2022/06/24 11:03:02;;;;;;;9.60;5.30;;;27.40;81.50;;;;;;4956873;28;20437;-82
2022/06/24 11:05:36;;;;;;;7.07;5.00;;;27.40;81.80;;;;;;4994212;28;20463;-82
2022/06/24 11:08:03;;;;;;;8.90;5.23;;;27.30;82.20;;;;;;5002526;28;20498;-82
2022/06/24 11:10:31;;;;;;;5.47;4.83;;;27.30;83.10;;;;;;4974976;28;20432;-82
2022/06/24 11:12:59;;;;;;;9.97;5.10;;;27.20;83.50;;;;;;4975135;28;20488;-82
2022/06/24 11:16:04;;;;;;;9.80;5.10;;;27.10;84.60;;;;;;4975664;28;20454;-83
2022/06/24 11:18:32;;;;;;;7.33;5.47;;;27.00;84.20;;;;;;4954667;28;20481;-83
2022/06/24 11:21:01;;;;;;;5.40;5.10;;;26.90;84.80;;;;;;4938418;28;20437;-83
2022/06/24 11:23:30;;;;;;;8.37;5.20;;;26.90;84.40;;;;;;4967676;28;20423;-82
2022/06/24 11:26:09;;;;;;;7.90;5.00;;;26.90;84.80;;;;;;5001076;28;20409;-82
2022/06/24 11:28:37;;;;;;;7.53;4.90;;;26.90;84.70;;;;;;4974558;28;20445;-82
2022/06/24 11:31:23;;;;;;;7.37;5.30;;;26.80;85.00;;;;;;4986906;28;20557;-82
2022/06/24 11:34:11;;;;;;;7.10;5.00;;;26.80;85.10;;;;;;4984863;28;20471;-83
2022/06/24 11:36:38;;;;;;;5.30;4.80;;;26.90;85.40;;;;;;4991866;28;20420;-82
2022/06/24 11:39:09;;;;;;;5.63;4.60;;;26.80;85.40;;;;;;4974720;28;20409;-82
2022/06/24 11:41:48;;;;;;;5.50;4.60;;;26.80;85.00;;;;;;4974472;28;20470;-82
2022/06/24 11:44:14;;;;;;;6.97;4.87;;;26.80;85.30;;;;;;4974807;28;20790;-82
2022/06/24 11:46:47;;;;;;;8.80;5.50;;;26.80;85.20;;;;;;4967623;28;20438;-83
2022/06/24 11:49:13;;;;;;;6.33;4.80;;;26.80;85.40;;;;;;4974091;28;20545;-82
2022/06/24 11:51:41;;;;;;;7.53;4.60;;;26.70;85.90;;;;;;4995470;28;20401;-83
2022/06/24 11:54:08;;;;;;;9.80;4.87;;;26.70;86.20;;;;;;4977612;28;20472;-83
2022/06/24 11:56:38;;;;;;;6.00;3.90;;;26.70;86.50;;;;;;4978381;28;20544;-84
2022/06/24 11:59:06;;;;;;;6.30;3.80;;;26.60;86.50;;;;;;4998883;28;20448;-82
2022/06/24 12:01:33;;;;;;;4.90;4.00;;;26.40;85.40;;;;;;4997999;28;20866;-84
2022/06/24 12:04:05;;;;;;;3.83;3.10;;;26.40;85.70;;;;;;4984317;28;20413;-82
2022/06/24 12:06:34;;;;;;;7.27;3.60;;;26.30;85.40;;;;;;5002336;28;20469;-83
2022/06/24 12:09:02;;;;;;;8.23;4.20;;;26.20;85.90;;;;;;4959714;28;20856;-84
2022/06/24 12:11:29;;;;;;;7.30;3.77;;;26.10;87.10;;;;;;4985437;28;20841;-84
2022/06/24 12:14:16;;;;;;;6.07;4.83;;;26.00;87.90;;;;;;4986206;28;20457;-84
2022/06/24 12:17:02;;;;;;;7.63;3.80;;;25.90;87.80;;;;;;4980399;28;20448;-85
2022/06/24 12:20:11;;;;;;;7.40;4.17;;;25.80;88.20;;;;;;4995290;28;20417;-86
2022/06/24 12:23:25;;;;;;;5.67;4.20;;;25.70;88.80;;;;;;4982633;28;20606;-85
2022/06/24 12:26:48;;;;;;;8.47;4.83;;;25.60;89.30;;;;;;5002811;28;20475;-84
2022/06/24 12:29:57;;;;;;;7.53;4.77;;;25.50;90.90;;;;;;5001608;28;20433;-84
2022/06/24 12:33:11;;;;;;;12.20;5.77;;;25.40;92.60;;;;;;5001533;28;20456;-84
2022/06/24 12:36:14;;;;;;;6.20;4.77;;;25.10;94.70;;;;;;4967791;28;20931;-84
2022/06/24 12:39:02;;;;;;;7.63;5.20;;;24.90;95.30;;;;;;4964049;28;20450;-84
2022/06/24 12:41:28;;;;;;;9.37;5.33;;;24.60;96.80;;;;;;4970214;28;20421;-85
2022/06/24 12:44:00;;;;;;;9.13;6.83;;;24.50;97.30;;;;;;4976337;28;20471;-84
2022/06/24 12:46:34;;;;;;;11.03;7.20;;;24.30;97.30;;;;;;4964702;28;20265;-86
2022/06/24 12:51:47;;;;;;;8.00;6.13;;;23.90;97.30;;;;;;5005721;28;20878;-85
2022/06/24 12:56:52;;;;;;;10.60;6.30;;;23.80;97.30;;;;;;5019033;28;20475;-85
2022/06/24 12:59:17;;;;;;;9.23;6.33;;;23.80;97.30;;;;;;5001538;28;21054;-85
2022/06/24 13:01:45;;;;;;;9.90;6.60;;;23.70;97.30;;;;;;4993817;28;20170;-84
2022/06/24 13:04:13;;;;;;;12.43;6.60;;;23.60;97.30;;;;;;4995632;28;20187;-85
2022/06/24 13:06:39;;;;;;;9.80;7.27;;;23.50;97.30;;;;;;5008522;28;21010;-85
2022/06/24 13:09:12;;;;;;;11.17;7.20;;;23.50;97.30;;;;;;4987365;28;20456;-85
2022/06/24 13:11:43;;;;;;;13.87;7.80;;;23.40;97.30;;;;;;5006059;28;20702;-84
2022/06/24 13:14:09;;;;;;;19.50;8.10;;;23.30;97.30;;;;;;5002853;28;20468;-83
2022/06/24 13:16:47;;;;;;;13.90;8.07;;;23.30;97.30;;;;;;4998286;28;20432;-83
2022/06/24 13:19:15;;;;;;;16.33;7.00;;;23.30;97.30;;;;;;4997279;28;20661;-84
2022/06/24 13:21:41;;;;;;;11.10;7.60;;;23.30;97.30;;;;;;4998866;28;20409;-83
2022/06/24 13:24:07;;;;;;;15.90;7.93;;;23.30;97.30;;;;;;4998734;28;20422;-82
2022/06/24 13:26:33;;;;;;;14.47;7.77;;;23.30;97.30;;;;;;4998659;28;20453;-84
2022/06/24 13:29:34;;;;;;;13.50;8.00;;;23.40;97.30;;;;;;4998485;28;20196;-85
2022/06/24 13:32:17;;;;;;;10.67;7.37;;;23.40;97.30;;;;;;4998108;28;20428;-84
2022/06/24 13:34:53;;;;;;;10.27;7.60;;;23.60;97.30;;;;;;4979802;28;20515;-84
2022/06/24 13:37:18;;;;;;;11.73;8.20;;;23.80;97.30;;;;;;4977278;28;20802;-84
2022/06/24 13:39:44;;;;;;;10.23;7.70;;;24.00;97.30;;;;;;4979156;28;20413;-84
2022/06/24 13:42:12;;;;;;;9.40;7.80;;;24.20;97.30;;;;;;4996681;28;20486;-84
2022/06/24 13:44:39;;;;;;;9.30;7.00;;;24.40;97.30;;;;;;4998131;28;20613;-83
2022/06/24 13:47:10;;;;;;;8.70;7.13;;;24.40;97.30;;;;;;5014203;28;20471;-84
2022/06/24 13:49:35;;;;;;;11.10;7.30;;;24.40;97.30;;;;;;4992313;28;20461;-85
2022/06/24 13:52:01;;;;;;;8.40;6.67;;;24.50;97.30;;;;;;4977993;28;20178;-85
2022/06/24 13:54:27;;;;;;;11.73;6.57;;;24.50;97.30;;;;;;4976247;28;20209;-84
2022/06/24 13:56:53;;;;;;;8.00;6.33;;;24.50;97.30;;;;;;4976883;28;20197;-85
2022/06/24 13:59:28;;;;;;;8.70;6.10;;;24.50;97.30;;;;;;4977314;28;20188;-84
2022/06/24 14:01:54;;;;;;;7.57;6.00;;;24.50;97.30;;;;;;4977271;28;20170;-83
2022/06/24 14:04:19;;;;;;;7.27;5.20;;;24.60;97.30;;;;;;4978281;28;20568;-83
2022/06/24 14:06:45;;;;;;;6.80;5.27;;;24.60;97.30;;;;;;4978029;28;20198;-84
2022/06/24 14:09:25;;;;;;;9.13;5.50;;;24.60;97.30;;;;;;4976929;28;20225;-84
2022/06/24 14:11:52;;;;;;;6.03;5.67;;;24.80;97.30;;;;;;5000535;28;20195;-85
2022/06/24 14:14:20;;;;;;;8.17;6.17;;;24.90;97.20;;;;;;4984858;28;20465;-85
2022/06/24 14:16:46;;;;;;;5.73;4.70;;;25.00;97.10;;;;;;4984606;28;20448;-84
2022/06/24 14:19:11;;;;;;;8.37;4.97;;;25.10;95.50;;;;;;4975974;28;20787;-85
2022/06/24 14:21:40;;;;;;;5.20;4.60;;;25.20;94.70;;;;;;4975508;28;20177;-86
2022/06/24 14:26:51;;;;;;;6.73;5.10;;;25.30;96.50;;;;;;4992513;28;20507;-86
2022/06/24 14:29:16;;;;;;;7.20;4.90;;;25.40;95.20;;;;;;4964094;28;20445;-84
2022/06/24 14:31:42;;;;;;;5.63;4.70;;;25.60;95.90;;;;;;4990492;28;20533;-85
2022/06/24 14:34:08;;;;;;;6.27;4.40;;;25.70;95.70;;;;;;4975875;28;20202;-86
2022/06/24 14:36:34;;;;;;;8.17;4.93;;;25.70;94.80;;;;;;4974803;28;20564;-84
2022/06/24 14:41:43;;;;;;;6.10;4.93;;;25.60;93.20;;;;;;4992433;28;20239;-84
2022/06/24 14:44:09;;;;;;;5.03;4.33;;;25.70;94.10;;;;;;4968898;28;20829;-85
2022/06/24 14:46:35;;;;;;;4.63;4.33;;;25.70;92.30;;;;;;4975342;28;20205;-85
2022/06/24 14:49:01;;;;;;;5.30;5.03;;;25.80;93.60;;;;;;4975123;28;20413;-85
2022/06/24 14:51:27;;;;;;;6.57;4.57;;;25.80;92.90;;;;;;5010340;28;20185;-86
2022/06/24 14:53:52;;;;;;;7.23;4.40;;;25.90;92.90;;;;;;4995157;28;20240;-86
2022/06/24 14:56:18;;;;;;;7.17;4.20;;;26.00;93.00;;;;;;5002159;28;20662;-86
2022/06/24 14:58:44;;;;;;;5.03;4.30;;;26.10;92.70;;;;;;4999298;28;20189;-86
2022/06/24 15:01:30;;;;;;;6.67;4.40;;;26.40;92.20;;;;;;5015774;28;20241;-85
2022/06/24 15:03:55;;;;;;;6.13;4.50;;;26.50;91.20;;;;;;4995672;28;20181;-87
2022/06/24 15:06:21;;;;;;;5.77;4.30;;;26.70;91.20;;;;;;5006174;28;20432;-87
2022/06/24 15:08:47;;;;;;;5.33;4.23;;;26.80;90.30;;;;;;4995532;28;20280;-87
2022/06/24 15:11:13;;;;;;;5.00;3.90;;;26.90;89.10;;;;;;4993305;28;20192;-88
2022/06/24 15:13:39;;;;;;;5.50;3.60;;;26.90;88.90;;;;;;4994434;28;20772;-87
2022/06/24 15:16:05;;;;;;;3.77;3.63;;;27.00;88.30;;;;;;4994928;28;20412;-88
2022/06/24 15:18:30;;;;;;;4.33;3.60;;;27.00;86.80;;;;;;5000515;28;20288;-88
2022/06/24 15:20:56;;;;;;;4.70;4.03;;;27.10;87.90;;;;;;5004460;28;20657;-89
2022/06/24 15:23:21;;;;;;;4.53;4.00;;;27.20;86.70;;;;;;4993643;28;20651;-87
2022/06/24 15:25:47;;;;;;;5.33;4.10;;;27.40;87.40;;;;;;4975398;28;20235;-87
2022/06/24 15:28:13;;;;;;;7.00;4.40;;;27.70;88.40;;;;;;4974384;28;20198;-88
2022/06/24 15:30:38;;;;;;;5.20;4.43;;;27.90;88.80;;;;;;4984140;28;20181;-87
2022/06/24 15:33:04;;;;;;;5.20;4.50;;;28.10;87.60;;;;;;4993706;28;20205;-86
2022/06/24 15:35:29;;;;;;;6.57;4.70;;;28.20;85.60;;;;;;4995047;28;20191;-88
2022/06/24 15:37:55;;;;;;;7.90;5.03;;;28.20;84.30;;;;;;4985240;28;20201;-88